Time;durP1;ratioP1;P1;durP2;ratioP2;P2;SDS_P1;SDS_P2;PMS_P1;PMS_P2;Temp;Humidity;BMP_temperature;BMP_pressure;BME280_temperature;BME280_humidity;BME280_pressure;Samples;Min_cycle;Max_cycle;Signal;HPM_P1;HPM_P2
2022/06/07 00:00:10;;;;;;;6.70;5.13;;;;;;;18.68;90.31;98114.06;4139371;28;21198;-84
2022/06/07 00:02:16;;;;;;;6.07;5.30;;;;;;;18.71;90.27;98109.31;4106872;28;20628;-84
2022/06/07 00:04:19;;;;;;;6.37;4.73;;;;;;;18.72;90.10;98105.69;4110291;28;20642;-84
2022/06/07 00:06:37;;;;;;;6.10;5.00;;;;;;;18.76;89.97;98112.31;4118758;28;21088;-84
2022/06/07 00:08:41;;;;;;;5.27;4.57;;;;;;;18.76;90.74;98122.88;4113736;28;20618;-84
2022/06/07 00:10:44;;;;;;;6.00;5.37;;;;;;;18.74;90.78;98114.28;4111229;28;21169;-84
2022/06/07 00:12:48;;;;;;;7.77;5.37;;;;;;;18.73;91.31;98117.91;4141045;28;20639;-85
2022/06/07 00:14:53;;;;;;;10.57;5.73;;;;;;;18.74;91.83;98119.56;4126576;28;20676;-84
2022/06/07 00:16:56;;;;;;;5.60;4.87;;;;;;;18.74;91.25;98109.00;4139049;28;20632;-84
2022/06/07 00:18:59;;;;;;;6.07;4.83;;;;;;;18.76;91.54;98112.31;4111958;28;21075;-84
2022/06/07 00:21:02;;;;;;;6.07;5.20;;;;;;;18.75;91.49;98121.25;4123233;28;20676;-84
2022/06/07 00:23:08;;;;;;;5.90;4.93;;;;;;;18.74;92.13;98119.56;4116513;28;20664;-84
2022/06/07 00:25:18;;;;;;;7.20;4.77;;;;;;;18.72;91.50;98123.34;4135256;28;20727;-84
2022/06/07 00:27:21;;;;;;;5.77;4.90;;;;;;;18.70;91.81;98117.38;4136099;28;20627;-84
2022/06/07 00:29:25;;;;;;;5.90;5.17;;;;;;;18.68;91.17;98120.19;4136510;28;20645;-85
2022/06/07 00:31:30;;;;;;;7.53;5.10;;;;;;;18.67;91.86;98117.69;4138588;28;20627;-84
2022/06/07 00:33:33;;;;;;;7.00;4.87;;;;;;;18.67;90.99;98123.81;4134786;28;20718;-84
2022/06/07 00:35:36;;;;;;;5.87;5.17;;;;;;;18.66;91.64;98122.16;4123737;28;20689;-84
2022/06/07 00:37:39;;;;;;;6.50;4.87;;;;;;;18.67;91.96;98123.81;4105662;28;20732;-84
2022/06/07 00:39:43;;;;;;;6.07;4.93;;;;;;;18.67;91.00;98123.81;4129416;28;20629;-84
2022/06/07 00:41:46;;;;;;;5.43;4.83;;;;;;;18.68;91.90;98120.19;4105753;28;20634;-84
2022/06/07 00:44:24;;;;;;;8.73;5.50;;;;;;;18.66;91.96;98105.47;4104560;28;20646;-85
2022/06/07 00:46:27;;;;;;;5.70;4.87;;;;;;;18.65;91.13;98112.56;4111284;28;20637;-85
2022/06/07 00:48:32;;;;;;;6.03;5.50;;;;;;;18.65;91.84;98114.38;4127603;28;20646;-84
2022/06/07 00:50:40;;;;;;;9.03;5.37;;;;;;;18.66;91.86;98122.16;4112784;28;20628;-84
2022/06/07 00:52:43;;;;;;;8.23;4.83;;;;;;;18.64;91.71;98124.13;4105615;28;20643;-84
2022/06/07 00:54:46;;;;;;;7.13;4.73;;;;;;;18.61;92.49;98119.16;4118073;28;20623;-84
2022/06/07 00:57:01;;;;;;;5.83;5.23;;;;;;;18.60;92.39;98128.06;4100975;28;20749;-84
2022/06/07 00:59:08;;;;;;;6.43;4.80;;;;;;;18.60;92.75;98122.78;4113373;28;20703;-84
2022/06/07 01:01:11;;;;;;;8.00;4.97;;;;;;;18.60;92.42;98127.25;4122954;28;20735;-84
2022/06/07 01:03:20;;;;;;;7.30;4.67;;;;;;;18.59;92.88;98131.66;4121590;28;20722;-84
2022/06/07 01:05:28;;;;;;;7.50;4.60;;;;;;;18.58;92.18;98130.03;4123084;28;20663;-84
2022/06/07 01:12:16;;;;;;;7.73;5.00;;;;;;;18.55;92.17;98127.69;4117962;28;20628;-85
2022/06/07 01:14:19;;;;;;;6.53;4.77;;;;;;;18.54;92.67;98125.19;4122810;28;20628;-84
2022/06/07 01:16:31;;;;;;;5.37;4.87;;;;;;;18.52;91.92;98120.06;4120244;28;20669;-84
2022/06/07 01:18:35;;;;;;;6.03;4.70;;;;;;;18.52;91.38;98121.88;4112964;28;20671;-84
2022/06/07 01:20:44;;;;;;;7.07;4.80;;;;;;;18.53;91.56;98121.72;4112947;28;21221;-84
2022/06/07 01:22:49;;;;;;;7.87;5.03;;;;;;;18.54;91.98;98123.38;4115436;28;20625;-84
2022/06/07 01:24:57;;;;;;;5.43;4.50;;;;;;;18.54;92.26;98123.38;4138046;28;20634;-84
2022/06/07 01:27:00;;;;;;;5.37;4.67;;;;;;;18.54;92.44;98123.38;4116761;28;20702;-84
2022/06/07 01:29:04;;;;;;;5.33;4.83;;;;;;;18.51;92.40;98121.03;4122424;28;21026;-84
2022/06/07 01:31:08;;;;;;;7.30;4.83;;;;;;;18.51;92.47;98121.03;4124168;28;21229;-85
2022/06/07 01:33:11;;;;;;;6.43;5.37;;;;;;;18.50;92.96;98116.72;4125349;28;21079;-84
2022/06/07 01:35:14;;;;;;;5.30;4.80;;;;;;;18.48;93.63;98118.72;4133403;28;20624;-84
2022/06/07 01:37:20;;;;;;;7.07;4.73;;;;;;;18.48;93.09;98123.16;4126870;28;21176;-84
2022/06/07 01:41:55;;;;;;;6.57;5.87;;;;;;;18.44;92.99;98117.34;4139025;28;20643;-84
2022/06/07 01:44:05;;;;;;;8.47;5.67;;;;;;;18.44;92.76;98116.53;4147259;28;20674;-84
2022/06/07 01:46:08;;;;;;;9.27;4.70;;;;;;;18.44;92.43;98106.78;4141001;28;20631;-84
2022/06/07 01:48:13;;;;;;;5.40;4.90;;;;;;;18.43;91.14;98109.56;4124804;28;20629;-84
2022/06/07 01:50:17;;;;;;;6.27;4.13;;;;;;;18.41;89.86;98111.53;4127452;28;20626;-84
2022/06/07 01:52:22;;;;;;;6.03;4.70;;;;;;;18.38;89.40;98111.84;4110866;28;20644;-84
2022/06/07 01:54:30;;;;;;;5.67;4.27;;;;;;;18.33;88.57;98113.25;4123381;28;20759;-84
2022/06/07 01:56:33;;;;;;;4.90;3.90;;;;;;;18.29;87.44;98111.94;4106073;28;20642;-84
2022/06/07 01:58:44;;;;;;;4.73;4.13;;;;;;;18.25;87.14;98107.91;4126351;28;20722;-84
2022/06/07 02:00:47;;;;;;;4.17;3.70;;;;;;;18.26;87.90;98104.31;4122258;28;21013;-84
2022/06/07 02:02:51;;;;;;;4.57;3.50;;;;;;;18.27;87.28;98108.63;4123179;28;21045;-84
2022/06/07 02:04:56;;;;;;;4.00;3.60;;;;;;;18.27;87.23;98108.63;4123941;28;20632;-84
2022/06/07 02:07:00;;;;;;;4.40;3.50;;;;;;;18.27;87.93;98111.25;4143319;28;20638;-85
2022/06/07 02:09:10;;;;;;;4.20;3.80;;;;;;;18.28;87.87;98104.97;4124514;28;21260;-84
2022/06/07 02:11:17;;;;;;;4.57;3.90;;;;;;;18.28;87.50;98111.13;4127985;28;21108;-84
2022/06/07 02:13:27;;;;;;;5.40;3.43;;;;;;;18.28;88.00;98107.63;4124332;28;20753;-84
2022/06/07 02:15:30;;;;;;;3.60;3.30;;;;;;;18.28;88.29;98108.47;4127361;28;20712;-84
2022/06/07 02:17:34;;;;;;;4.10;3.70;;;;;;;18.29;89.35;98101.38;4124980;28;20666;-84
2022/06/07 02:19:57;;;;;;;4.37;3.50;;;;;;;18.28;89.59;98104.97;4139470;28;21227;-84
2022/06/07 02:22:01;;;;;;;3.83;3.40;;;;;;;18.26;89.41;98096.38;4127650;28;20694;-84
2022/06/07 02:24:06;;;;;;;5.10;4.17;;;;;;;18.25;90.71;98098.22;4112582;28;20647;-84
2022/06/07 02:26:12;;;;;;;4.10;3.33;;;;;;;18.23;89.55;98094.88;4131726;28;20625;-84
2022/06/07 02:28:18;;;;;;;3.73;3.33;;;;;;;18.20;89.56;98092.53;4109689;28;20625;-84
2022/06/07 02:30:21;;;;;;;3.83;3.53;;;;;;;18.18;90.11;98097.16;4127854;28;21218;-84
2022/06/07 02:32:28;;;;;;;4.13;3.73;;;;;;;18.16;90.17;98095.63;4142539;28;21026;-84
2022/06/07 02:34:31;;;;;;;4.50;3.57;;;;;;;18.12;90.87;98088.97;4131590;28;21048;-84
2022/06/07 02:36:35;;;;;;;4.50;3.80;;;;;;;18.09;90.83;98087.44;4127324;28;20664;-84
2022/06/07 02:38:39;;;;;;;5.97;4.10;;;;;;;18.07;90.87;98078.00;4110957;28;21072;-84
2022/06/07 02:40:43;;;;;;;4.60;3.83;;;;;;;18.06;90.35;98077.19;4127637;28;20670;-84
2022/06/07 02:42:46;;;;;;;6.00;4.20;;;;;;;18.03;91.22;98076.69;4131794;28;20609;-84
2022/06/07 02:44:50;;;;;;;5.30;4.20;;;;;;;18.02;91.61;98072.38;4141679;28;20766;-84
2022/06/07 02:46:53;;;;;;;4.17;3.77;;;;;;;17.98;91.00;98063.94;4123490;28;20621;-85
2022/06/07 02:48:57;;;;;;;5.63;4.07;;;;;;;17.95;90.60;98069.50;4124946;28;20639;-84
2022/06/07 02:51:01;;;;;;;4.13;3.73;;;;;;;17.89;90.41;98065.78;4131539;28;20701;-84
2022/06/07 02:53:04;;;;;;;5.10;4.13;;;;;;;17.85;91.17;98075.00;4108685;28;20629;-84
2022/06/07 02:55:10;;;;;;;4.50;3.97;;;;;;;17.81;91.31;98071.81;4114635;28;20750;-84
2022/06/07 02:57:15;;;;;;;5.70;4.07;;;;;;;17.75;91.22;98069.78;4119560;28;20699;-84
2022/06/07 02:59:20;;;;;;;4.53;4.13;;;;;;;17.71;91.69;98070.22;4109907;28;20641;-84
2022/06/07 03:01:26;;;;;;;5.77;3.90;;;;;;;17.68;91.17;98076.66;4114885;28;20708;-84
2022/06/07 03:03:29;;;;;;;5.20;3.80;;;;;;;17.66;90.08;98075.94;4112583;28;20639;-84
2022/06/07 03:05:32;;;;;;;5.30;4.07;;;;;;;17.66;90.16;98069.84;4131844;28;20644;-84
2022/06/07 03:07:39;;;;;;;4.10;3.60;;;;;;;17.63;90.07;98068.31;4126660;28;20621;-84
2022/06/07 03:09:43;;;;;;;5.93;3.87;;;;;;;17.61;89.52;98058.94;4144909;28;20636;-84
2022/06/07 03:11:46;;;;;;;4.43;3.70;;;;;;;17.60;89.74;98060.72;4139525;28;20635;-84
2022/06/07 03:13:49;;;;;;;5.30;3.73;;;;;;;17.58;90.53;98061.84;4130289;28;20642;-84
2022/06/07 03:15:58;;;;;;;8.00;4.10;;;;;;;17.56;90.41;98074.34;4137352;28;20627;-85
2022/06/07 03:18:04;;;;;;;4.90;3.90;;;;;;;17.52;90.72;98062.44;4140423;28;20661;-84
2022/06/07 03:20:13;;;;;;;5.50;3.90;;;;;;;17.53;91.98;98069.41;4125250;28;20633;-84
2022/06/07 03:22:17;;;;;;;4.70;4.17;;;;;;;17.52;92.04;98068.53;4120673;28;20655;-84
2022/06/07 03:24:21;;;;;;;5.37;4.33;;;;;;;17.52;91.64;98070.34;4106410;28;20625;-84
2022/06/07 03:26:28;;;;;;;4.80;4.30;;;;;;;17.52;91.00;98067.72;4102642;28;20644;-84
2022/06/07 03:28:41;;;;;;;6.73;3.57;;;;;;;17.53;89.75;98066.75;4122450;28;20684;-84
2022/06/07 03:30:46;;;;;;;4.60;4.17;;;;;;;17.55;90.26;98068.25;4122756;28;20870;-84
2022/06/07 03:33:00;;;;;;;4.50;3.53;;;;;;;17.58;90.98;98075.03;4124127;28;21198;-84
2022/06/07 03:35:07;;;;;;;5.40;4.27;;;;;;;17.59;90.44;98081.97;4136527;28;20638;-84
2022/06/07 03:37:13;;;;;;;5.53;3.90;;;;;;;17.58;90.50;98081.16;4103817;28;21049;-84
2022/06/07 03:39:18;;;;;;;4.67;3.60;;;;;;;17.59;90.83;98080.19;4119648;28;20640;-84
2022/06/07 03:41:31;;;;;;;7.03;3.83;;;;;;;17.58;89.69;98070.59;4114506;28;20649;-84
2022/06/07 03:43:44;;;;;;;6.40;3.67;;;;;;;17.59;90.51;98076.69;4127624;28;20734;-84
2022/06/07 03:45:49;;;;;;;4.67;3.90;;;;;;;17.58;91.05;98077.69;4121613;28;20681;-84
2022/06/07 03:47:53;;;;;;;5.23;3.93;;;;;;;17.55;91.46;98073.53;4105925;28;20671;-84
2022/06/07 03:49:57;;;;;;;5.60;3.90;;;;;;;17.53;91.68;98075.50;4123537;28;20635;-85
2022/06/07 03:52:05;;;;;;;4.97;3.90;;;;;;;17.53;91.87;98072.84;4135505;28;20641;-84
2022/06/07 03:54:21;;;;;;;6.70;3.83;;;;;;;17.55;90.68;98064.78;4127729;28;21212;-84
2022/06/07 03:56:26;;;;;;;5.87;3.73;;;;;;;17.57;91.36;98068.09;4140251;28;20686;-84
2022/06/07 03:58:32;;;;;;;4.50;3.93;;;;;;;17.56;91.62;98069.91;4102985;28;20736;-84
2022/06/07 04:00:35;;;;;;;4.13;3.73;;;;;;;17.57;91.58;98066.28;4113977;28;21210;-84
2022/06/07 04:02:41;;;;;;;5.70;4.10;;;;;;;17.61;91.14;98069.47;4127704;28;20639;-84
2022/06/07 04:04:45;;;;;;;4.40;3.93;;;;;;;17.63;91.97;98075.41;4121136;28;20639;-84
2022/06/07 04:09:11;;;;;;;3.83;3.43;;;;;;;17.67;91.96;98077.63;4132183;28;20691;-85
2022/06/07 04:11:21;;;;;;;7.63;3.93;;;;;;;17.70;91.04;98077.31;4118519;28;20624;-84
2022/06/07 04:13:31;;;;;;;4.23;3.60;;;;;;;17.73;90.08;98078.84;4119169;28;20719;-84
2022/06/07 04:15:39;;;;;;;5.50;3.30;;;;;;;17.72;89.66;98080.63;4109749;28;20676;-84
2022/06/07 04:17:42;;;;;;;4.13;3.73;;;;;;;17.74;89.77;98081.34;4124989;28;20656;-84
2022/06/07 04:20:00;;;;;;;6.77;4.00;;;;;;;17.76;89.64;98074.09;4121431;28;20667;-84
2022/06/07 04:22:05;;;;;;;14.67;5.90;;;;;;;17.79;89.05;98071.16;4139263;28;20684;-84
2022/06/07 04:24:16;;;;;;;9.70;6.47;;;;;;;17.83;89.56;98067.25;4138838;28;21077;-84
2022/06/07 04:26:21;;;;;;;9.73;6.23;;;;;;;17.85;90.36;98070.56;4146001;28;21164;-84
2022/06/07 04:28:25;;;;;;;10.57;7.10;;;;;;;17.88;90.81;98080.00;4111581;28;21105;-84
2022/06/07 04:30:28;;;;;;;9.90;6.67;;;;;;;17.86;90.33;98068.72;4127298;28;20666;-84
2022/06/07 04:32:35;;;;;;;10.83;7.17;;;;;;;17.84;90.07;98068.06;4117263;28;20711;-84
2022/06/07 04:34:59;;;;;;;10.67;7.93;;;;;;;17.81;89.64;98071.81;4119783;28;20652;-84
2022/06/07 04:37:08;;;;;;;10.27;7.93;;;;;;;17.81;89.96;98071.00;4124132;28;21086;-84
2022/06/07 04:39:12;;;;;;;10.97;8.13;;;;;;;17.82;89.48;98068.22;4127085;28;21448;-84
2022/06/07 04:41:29;;;;;;;9.90;7.10;;;;;;;17.78;89.18;98077.41;4124519;28;20626;-84
2022/06/07 04:43:37;;;;;;;9.80;6.50;;;;;;;17.77;90.36;98072.28;4118692;28;21210;-84
2022/06/07 04:45:41;;;;;;;7.13;4.67;;;;;;;17.76;91.39;98082.00;4135999;28;20995;-84
2022/06/07 04:47:47;;;;;;;9.03;5.00;;;;;;;17.74;91.80;98086.59;4139820;28;20655;-84
2022/06/07 04:49:50;;;;;;;4.83;4.43;;;;;;;17.72;91.17;98093.81;4118975;28;20677;-84
2022/06/07 04:51:53;;;;;;;4.77;4.37;;;;;;;17.68;92.33;98081.94;4136869;28;20725;-84
2022/06/07 04:54:17;;;;;;;4.57;4.10;;;;;;;17.69;93.79;98086.19;4118879;28;20754;-84
2022/06/07 04:56:24;;;;;;;5.77;4.50;;;;;;;17.71;93.24;98089.53;4116806;28;20643;-84
2022/06/07 04:58:29;;;;;;;4.97;4.30;;;;;;;17.72;93.46;98091.19;4120830;28;20651;-84
2022/06/07 05:00:32;;;;;;;5.03;4.53;;;;;;;17.74;94.23;98093.66;4109637;28;20732;-84
2022/06/07 05:02:38;;;;;;;5.70;4.80;;;;;;;17.75;94.10;98090.88;4115969;28;20631;-84
2022/06/07 05:04:41;;;;;;;4.70;4.20;;;;;;;17.75;93.84;98090.06;4113488;28;20636;-84
2022/06/07 05:06:53;;;;;;;8.33;5.17;;;;;;;17.75;93.61;98093.53;4121343;28;20652;-84
2022/06/07 05:09:12;;;;;;;5.97;4.33;;;;;;;17.76;94.31;98097.00;4117600;28;20639;-84
2022/06/07 05:11:16;;;;;;;4.80;4.40;;;;;;;17.77;94.57;98096.88;4117360;28;20616;-84
2022/06/07 05:13:19;;;;;;;5.17;4.67;;;;;;;17.76;94.88;98097.84;4118967;28;21182;-84
2022/06/07 05:15:23;;;;;;;6.10;4.30;;;;;;;17.75;94.33;98096.16;4118242;28;20632;-84
2022/06/07 05:17:31;;;;;;;6.00;3.83;;;;;;;17.73;94.18;98100.78;4124557;28;20630;-84
2022/06/07 05:19:36;;;;;;;6.83;4.33;;;;;;;17.74;94.17;98101.59;4121679;28;20657;-83
2022/06/07 05:21:46;;;;;;;4.97;4.10;;;;;;;17.76;93.43;98107.56;4129045;28;21299;-84
2022/06/07 05:23:49;;;;;;;6.50;4.87;;;;;;;17.75;93.39;98108.53;4122291;28;20635;-84
2022/06/07 05:25:53;;;;;;;5.37;4.50;;;;;;;17.78;94.20;98114.34;4120178;28;20623;-84
2022/06/07 05:27:57;;;;;;;4.90;4.37;;;;;;;17.82;94.54;98114.91;4106474;28;21182;-84
2022/06/07 05:30:08;;;;;;;5.10;4.60;;;;;;;17.84;94.54;98115.56;4123058;28;20616;-84
2022/06/07 05:32:24;;;;;;;6.60;4.50;;;;;;;17.88;95.07;98122.22;4140572;28;21221;-84
2022/06/07 05:34:30;;;;;;;6.40;4.50;;;;;;;17.91;94.49;98122.75;4132707;28;20640;-84
2022/06/07 05:36:33;;;;;;;6.00;4.50;;;;;;;17.92;94.03;98125.22;4125449;28;21204;-84
2022/06/07 05:38:40;;;;;;;5.33;4.83;;;;;;;17.92;93.61;98127.06;4107551;28;20665;-84
2022/06/07 05:40:50;;;;;;;5.03;4.37;;;;;;;17.94;93.61;98131.19;4130497;28;20981;-84
2022/06/07 05:42:55;;;;;;;4.07;3.67;;;;;;;17.98;93.90;98134.34;4116164;28;20647;-84
2022/06/07 05:45:07;;;;;;;4.30;3.90;;;;;;;18.01;93.91;98141.97;4123904;28;21092;-84
2022/06/07 05:47:11;;;;;;;5.80;4.57;;;;;;;18.02;92.69;98133.91;4108341;28;20682;-84
2022/06/07 05:49:30;;;;;;;4.10;3.70;;;;;;;18.05;94.15;98141.53;4126292;28;20649;-84
2022/06/07 05:51:43;;;;;;;5.23;4.30;;;;;;;18.08;93.74;98141.22;4143559;28;20636;-84
2022/06/07 05:54:05;;;;;;;5.30;4.80;;;;;;;18.07;92.49;98139.59;4125497;28;21214;-84
2022/06/07 05:56:10;;;;;;;5.20;4.10;;;;;;;18.06;92.02;98137.91;4095903;29;20651;-84
2022/06/07 05:58:15;;;;;;;7.23;3.83;;;;;;;18.08;92.72;98137.75;4104280;28;20656;-85
2022/06/07 06:00:20;;;;;;;4.77;4.00;;;;;;;18.10;92.35;98138.44;4137810;28;20752;-84
2022/06/07 06:02:25;;;;;;;5.80;3.93;;;;;;;18.10;92.46;98138.44;4137823;28;20643;-84
2022/06/07 06:04:30;;;;;;;6.80;3.63;;;;;;;18.12;92.14;98144.41;4120711;28;21203;-84
2022/06/07 06:06:36;;;;;;;4.40;4.00;;;;;;;18.16;92.75;98148.44;4141153;28;20757;-84
2022/06/07 06:11:04;;;;;;;6.03;4.13;;;;;;;18.30;92.96;98154.03;4123205;28;20636;-84
2022/06/07 06:13:08;;;;;;;5.07;4.47;;;;;;;18.39;93.37;98153.13;4112636;28;20740;-84
2022/06/07 06:15:11;;;;;;;6.43;4.20;;;;;;;18.50;91.66;98148.44;4127976;28;20635;-84
2022/06/07 06:17:14;;;;;;;5.70;4.17;;;;;;;18.67;91.90;98144.97;4134804;28;20742;-84
2022/06/07 06:19:24;;;;;;;5.00;4.20;;;;;;;18.89;89.09;98149.75;4122174;28;21052;-84
2022/06/07 06:21:35;;;;;;;6.87;4.40;;;;;;;19.11;88.15;98151.91;4124955;28;20649;-84
2022/06/07 06:23:39;;;;;;;4.60;3.57;;;;;;;19.21;87.63;98137.59;4125826;28;21035;-85
2022/06/07 06:25:43;;;;;;;4.40;4.00;;;;;;;19.29;87.93;98145.59;4124275;28;20728;-84
2022/06/07 06:27:48;;;;;;;12.80;3.63;;;;;;;19.37;86.64;98128.94;4119619;28;20631;-84
2022/06/07 06:29:52;;;;;;;4.17;3.77;;;;;;;19.44;86.37;98138.72;4116359;28;20631;-84
2022/06/07 06:31:56;;;;;;;4.60;3.20;;;;;;;19.47;85.46;98139.22;4128497;28;21186;-84
2022/06/07 06:34:00;;;;;;;3.80;3.40;;;;;;;19.51;83.72;98131.78;4115470;28;20625;-84
2022/06/07 06:36:07;;;;;;;3.77;3.10;;;;;;;19.54;84.44;98131.47;4123782;28;20667;-84
2022/06/07 06:38:14;;;;;;;4.03;2.60;;;;;;;19.65;83.47;98131.19;4111516;28;20643;-84
2022/06/07 06:40:17;;;;;;;3.10;2.53;;;;;;;19.83;82.87;98135.41;4109854;28;21032;-84
2022/06/07 06:42:33;;;;;;;4.43;2.93;;;;;;;20.29;82.54;98150.78;4122368;28;21224;-84
2022/06/07 06:44:50;;;;;;;3.63;2.80;;;;;;;20.82;80.53;98143.06;4126943;28;20637;-84
2022/06/07 06:46:54;;;;;;;5.53;3.10;;;;;;;21.02;79.98;98146.22;4130542;28;20696;-84
2022/06/07 06:48:58;;;;;;;6.50;3.60;;;;;;;20.98;80.55;98147.53;4123891;28;21055;-84
2022/06/07 06:51:04;;;;;;;3.37;3.07;;;;;;;20.93;79.49;98147.22;4115522;28;20636;-84
2022/06/07 06:53:07;;;;;;;5.70;3.30;;;;;;;20.89;78.60;98151.19;4121572;28;20645;-84
2022/06/07 06:55:13;;;;;;;3.77;3.17;;;;;;;20.86;79.18;98144.38;4105261;28;20629;-85
2022/06/07 06:57:16;;;;;;;5.70;2.90;;;;;;;20.92;79.97;98146.38;4141754;28;21177;-84
2022/06/07 06:59:30;;;;;;;3.50;2.83;;;;;;;21.49;78.89;98158.56;4125997;28;20710;-84
2022/06/07 07:01:38;;;;;;;3.70;2.90;;;;;;;22.12;76.64;98163.63;4106099;28;20627;-84
2022/06/07 07:03:42;;;;;;;3.50;2.77;;;;;;;22.28;77.01;98161.75;4115104;28;20623;-83
2022/06/07 07:05:51;;;;;;;4.10;2.70;;;;;;;22.57;76.09;98164.53;4117184;28;20635;-85
2022/06/07 07:07:56;;;;;;;4.67;2.80;;;;;;;22.85;74.92;98166.47;4129584;28;21020;-84
2022/06/07 07:10:02;;;;;;;3.70;2.70;;;;;;;23.15;73.85;98168.22;4123981;28;20631;-84
2022/06/07 07:12:08;;;;;;;7.10;2.60;;;;;;;23.25;72.69;98166.16;4122292;28;20704;-84
2022/06/07 07:14:27;;;;;;;3.07;2.23;;;;;;;23.35;71.36;98167.53;4102496;28;20685;-84
2022/06/07 07:16:34;;;;;;;4.53;2.40;;;;;;;23.31;69.81;98168.91;4137039;28;20627;-85
2022/06/07 07:18:37;;;;;;;3.20;2.30;;;;;;;23.32;70.03;98167.91;4140260;28;20740;-84
2022/06/07 07:20:41;;;;;;;3.53;2.37;;;;;;;23.44;68.59;98169.13;4122095;28;20687;-85
2022/06/07 07:22:44;;;;;;;2.43;2.00;;;;;;;23.46;70.23;98167.09;4124063;28;20624;-85
2022/06/07 07:24:49;;;;;;;5.30;2.50;;;;;;;23.30;67.33;98163.75;4107828;28;20643;-84
2022/06/07 07:26:55;;;;;;;2.93;2.40;;;;;;;23.01;67.94;98165.53;4119577;28;20665;-84
2022/06/07 07:29:03;;;;;;;3.60;2.20;;;;;;;22.93;69.64;98160.28;4133108;28;20651;-84
2022/06/07 07:31:11;;;;;;;6.87;2.80;;;;;;;22.83;69.60;98154.34;4123911;28;20649;-84
2022/06/07 07:33:16;;;;;;;3.43;2.20;;;;;;;22.78;69.60;98159.41;4117784;28;20708;-84
2022/06/07 07:35:20;;;;;;;4.37;2.40;;;;;;;22.76;69.12;98154.25;4126094;28;20736;-84
2022/06/07 07:37:34;;;;;;;6.40;3.00;;;;;;;22.73;69.95;98156.41;4107202;28;20679;-84
2022/06/07 07:39:45;;;;;;;3.57;2.23;;;;;;;22.84;69.92;98156.03;4120045;28;20758;-84
2022/06/07 07:41:55;;;;;;;3.10;1.80;;;;;;;23.14;70.96;98155.09;4138349;28;20655;-84
2022/06/07 07:44:02;;;;;;;2.90;1.90;;;;;;;23.20;69.82;98160.53;4143703;28;20737;-84
2022/06/07 07:46:34;;;;;;;3.23;1.87;;;;;;;23.15;69.31;98160.25;4126752;28;21223;-84
2022/06/07 07:48:39;;;;;;;4.97;1.80;;;;;;;23.12;68.95;98157.94;4134439;28;21013;-84
2022/06/07 07:50:42;;;;;;;3.13;1.80;;;;;;;23.14;70.11;98152.44;4128968;28;20680;-85
2022/06/07 07:52:48;;;;;;;2.73;1.73;;;;;;;23.19;70.02;98140.25;4144921;28;20632;-84
2022/06/07 07:55:10;;;;;;;2.73;1.80;;;;;;;23.38;68.46;98148.53;4138395;28;21208;-84
2022/06/07 07:57:14;;;;;;;2.17;1.70;;;;;;;23.47;69.94;98147.44;4121471;28;20629;-84
2022/06/07 07:59:22;;;;;;;2.40;1.73;;;;;;;23.49;69.16;98156.06;4122068;28;21089;-84
2022/06/07 08:01:29;;;;;;;2.87;1.97;;;;;;;23.46;68.57;98150.28;4121871;28;20680;-84
2022/06/07 08:03:33;;;;;;;4.10;1.80;;;;;;;23.42;68.80;98149.81;4142244;28;20988;-84
2022/06/07 08:05:48;;;;;;;2.10;1.30;;;;;;;23.42;68.97;98147.13;4134431;28;20632;-85
2022/06/07 08:07:51;;;;;;;2.40;1.80;;;;;;;23.36;69.69;98150.56;4141235;28;20633;-84
2022/06/07 08:10:01;;;;;;;2.67;1.63;;;;;;;23.32;69.42;98135.13;4141033;28;21215;-84
2022/06/07 08:12:06;;;;;;;3.50;1.90;;;;;;;23.29;69.67;98138.97;4119884;28;21004;-84
2022/06/07 08:14:13;;;;;;;3.60;1.87;;;;;;;23.29;69.83;98138.16;4130106;28;21254;-84
2022/06/07 08:16:18;;;;;;;3.10;1.80;;;;;;;23.29;67.44;98144.31;4119053;28;20655;-84
2022/06/07 08:18:23;;;;;;;3.00;1.90;;;;;;;23.36;69.42;98145.25;4126864;28;20628;-84
2022/06/07 08:20:28;;;;;;;3.43;2.07;;;;;;;23.52;67.85;98139.72;4123592;28;20661;-84
2022/06/07 08:22:33;;;;;;;2.57;1.90;;;;;;;23.59;66.70;98135.31;4139746;28;20712;-84
2022/06/07 08:24:36;;;;;;;3.40;2.20;;;;;;;23.62;66.25;98123.44;4112149;28;20642;-84
2022/06/07 08:26:40;;;;;;;3.73;1.70;;;;;;;23.70;67.62;98137.53;4113621;28;20662;-84
2022/06/07 08:28:44;;;;;;;2.67;1.80;;;;;;;23.69;69.40;98134.06;4128949;28;20660;-84
2022/06/07 08:30:50;;;;;;;2.60;1.67;;;;;;;23.69;65.17;98133.22;4138213;28;20777;-84
2022/06/07 08:37:32;;;;;;;2.83;1.80;;;;;;;23.79;67.05;98145.25;4143646;28;20630;-85
2022/06/07 08:37:42;;;;;;;3.80;2.00;;;;;;;23.90;63.59;98139.44;4129076;28;20749;-84
2022/06/07 08:39:46;;;;;;;4.10;1.90;;;;;;;24.11;68.39;98146.69;4131893;28;21386;-84
2022/06/07 08:41:51;;;;;;;3.77;2.20;;;;;;;24.38;66.24;98150.31;4126687;28;20662;-85
2022/06/07 08:44:26;;;;;;;3.33;2.37;;;;;;;24.49;64.16;98141.81;4084041;29;20637;-84
2022/06/07 08:46:31;;;;;;;2.67;1.90;;;;;;;24.22;64.79;98139.84;4096881;29;20739;-84
2022/06/07 08:48:36;;;;;;;4.47;1.90;;;;;;;24.07;65.68;98127.56;4105422;28;20648;-84
2022/06/07 08:50:42;;;;;;;2.67;1.80;;;;;;;23.95;65.42;98136.22;4119563;28;20638;-85
2022/06/07 08:52:48;;;;;;;4.70;2.07;;;;;;;23.81;66.21;98127.22;4123041;28;21200;-85
2022/06/07 08:54:51;;;;;;;4.00;1.90;;;;;;;23.82;66.77;98130.75;4113776;28;20774;-84
2022/06/07 08:56:54;;;;;;;3.23;1.80;;;;;;;23.85;65.33;98125.84;4117472;28;20631;-84
2022/06/07 08:59:01;;;;;;;3.10;1.50;;;;;;;24.05;67.49;98129.59;4134382;28;20743;-84
2022/06/07 09:01:14;;;;;;;2.07;1.70;;;;;;;24.19;67.23;98134.03;4134686;28;20734;-85
2022/06/07 09:03:31;;;;;;;5.07;2.20;;;;;;;24.08;68.00;98125.72;4135353;28;20634;-84
2022/06/07 09:05:42;;;;;;;3.40;1.80;;;;;;;23.96;69.65;98124.56;4138324;28;21011;-84
2022/06/07 09:07:46;;;;;;;3.63;2.03;;;;;;;23.97;68.47;98116.38;4140209;28;21000;-84
2022/06/07 09:12:15;;;;;;;3.30;1.83;;;;;;;24.01;65.93;98111.47;4138839;28;20631;-84
2022/06/07 09:14:21;;;;;;;2.57;1.70;;;;;;;24.07;68.29;98113.41;4119645;28;20731;-84
2022/06/07 09:16:37;;;;;;;3.50;2.10;;;;;;;24.20;67.44;98115.19;4119364;28;21306;-84
2022/06/07 09:18:41;;;;;;;9.47;2.30;;;;;;;24.37;67.09;98111.34;4106702;28;20736;-84
2022/06/07 09:20:48;;;;;;;2.90;1.93;;;;;;;24.58;64.75;98105.97;4123130;28;21164;-84
2022/06/07 09:22:54;;;;;;;4.37;1.87;;;;;;;24.70;67.45;98107.97;4131358;28;20635;-84
2022/06/07 09:25:00;;;;;;;3.30;1.80;;;;;;;24.88;65.28;98108.31;4129284;28;20656;-84
2022/06/07 09:27:08;;;;;;;4.33;2.00;;;;;;;25.13;66.63;98092.72;4140024;28;20647;-85
2022/06/07 09:29:16;;;;;;;4.07;1.97;;;;;;;25.34;64.87;98098.81;4143267;28;20667;-85
2022/06/07 09:31:22;;;;;;;2.30;1.50;;;;;;;25.13;62.99;98087.38;4119948;28;20634;-84
2022/06/07 09:33:27;;;;;;;2.07;1.57;;;;;;;24.89;63.99;98087.78;4121965;28;20678;-85
2022/06/07 09:35:37;;;;;;;2.93;1.67;;;;;;;24.81;64.18;98090.59;4140016;28;20630;-84
2022/06/07 09:37:55;;;;;;;4.40;2.30;;;;;;;24.62;62.49;98093.91;4138493;28;21348;-84
2022/06/07 09:40:09;;;;;;;4.30;2.03;;;;;;;24.31;65.48;98093.38;4110240;28;20733;-84
2022/06/07 09:42:18;;;;;;;2.80;2.00;;;;;;;24.06;64.89;98093.09;4129322;28;20654;-84
2022/06/07 09:44:25;;;;;;;2.27;1.83;;;;;;;23.94;65.52;98086.59;4111395;28;20635;-84
2022/06/07 09:46:30;;;;;;;2.70;1.70;;;;;;;24.03;67.59;98091.63;4108587;28;21282;-85
2022/06/07 09:48:37;;;;;;;4.17;1.90;;;;;;;24.34;66.83;98079.69;4119053;28;20722;-84
2022/06/07 09:50:40;;;;;;;3.07;1.50;;;;;;;24.62;67.18;98083.22;4128699;28;20647;-84
2022/06/07 09:52:50;;;;;;;2.47;2.00;;;;;;;24.91;63.52;98080.41;4140631;28;20643;-84
2022/06/07 09:54:58;;;;;;;2.80;1.70;;;;;;;25.20;65.86;98078.41;4139800;28;20619;-84
2022/06/07 09:57:09;;;;;;;3.43;1.83;;;;;;;25.25;63.17;98076.78;4112331;28;21269;-84
2022/06/07 09:59:43;;;;;;;4.70;2.00;;;;;;;24.85;63.11;98068.66;4120938;28;20673;-84
2022/06/07 10:02:06;;;;;;;3.17;1.90;;;;;;;24.41;63.10;98077.09;4129432;28;20662;-85
2022/06/07 10:04:17;;;;;;;2.90;1.80;;;;;;;24.14;63.87;98072.47;4131123;28;20722;-84
2022/06/07 10:06:27;;;;;;;3.40;1.50;;;;;;;23.97;63.27;98065.72;4137322;28;20631;-84
2022/06/07 10:08:42;;;;;;;4.13;1.53;;;;;;;24.15;64.98;98068.78;4130775;28;20647;-84
2022/06/07 10:10:51;;;;;;;5.00;1.50;;;;;;;24.45;64.25;98065.84;4109385;28;20642;-84
2022/06/07 10:13:05;;;;;;;2.97;1.47;;;;;;;24.63;62.58;98057.38;4129735;28;21225;-84
2022/06/07 10:15:19;;;;;;;2.73;1.40;;;;;;;24.57;62.18;98058.97;4143424;28;20629;-84